Time;durP1;ratioP1;P1;durP2;ratioP2;P2;SDS_P1;SDS_P2;PMS_P1;PMS_P2;Temp;Humidity;BMP_temperature;BMP_pressure;BME280_temperature;BME280_humidity;BME280_pressure;Samples;Min_cycle;Max_cycle;Signal;HPM_P1;HPM_P2
2021/07/19 00:00:00;;;;;;;4.80;1.70;;;25.90;37.20;;;;;;4142369;28;21214;-46
2021/07/19 00:02:03;;;;;;;2.00;1.65;;;26.00;37.10;;;;;;4142834;28;20054;-45
2021/07/19 00:04:05;;;;;;;2.40;1.48;;;26.10;37.00;;;;;;4144731;28;20306;-46
2021/07/19 00:06:07;;;;;;;1.98;1.60;;;26.20;36.90;;;;;;4143812;28;20094;-44
2021/07/19 00:08:09;;;;;;;3.78;1.63;;;26.30;36.80;;;;;;4141540;28;20028;-50
2021/07/19 00:10:15;;;;;;;1.70;1.40;;;26.50;36.70;;;;;;4143465;28;20149;-53
2021/07/19 00:12:17;;;;;;;3.65;1.90;;;26.50;36.30;;;;;;4140499;28;20578;-52
2021/07/19 00:14:20;;;;;;;3.15;1.67;;;26.60;36.00;;;;;;4142745;28;20115;-50
2021/07/19 00:16:23;;;;;;;4.82;2.00;;;26.70;35.80;;;;;;4139974;28;20036;-45
2021/07/19 00:18:25;;;;;;;;;;;26.80;35.70;;;;;;4140688;28;20698;-43
2021/07/19 00:20:27;;;;;;;1.92;1.48;;;26.90;35.80;;;;;;4139525;28;20950;-45
2021/07/19 00:22:29;;;;;;;2.97;1.63;;;27.00;35.70;;;;;;4140603;28;20205;-43
2021/07/19 00:24:32;;;;;;;2.17;1.48;;;27.10;35.60;;;;;;4140597;28;20036;-46
2021/07/19 00:26:34;;;;;;;3.50;1.60;;;27.20;35.60;;;;;;4138930;28;20409;-48
2021/07/19 00:28:36;;;;;;;1.80;1.43;;;27.30;35.50;;;;;;4143490;28;20021;-46
2021/07/19 00:30:39;;;;;;;1.77;1.60;;;27.30;35.50;;;;;;4145134;28;20102;-44
2021/07/19 00:32:43;;;;;;;2.25;1.65;;;26.90;35.10;;;;;;4149130;28;20457;-46
2021/07/19 00:34:46;;;;;;;;;;;26.60;35.00;;;;;;4148203;28;20036;-47
2021/07/19 00:36:50;;;;;;;7.47;2.00;;;26.20;35.80;;;;;;4149627;28;20002;-46
2021/07/19 00:38:52;;;;;;;3.83;1.73;;;25.90;35.90;;;;;;4152065;28;20098;-46
2021/07/19 00:40:55;;;;;;;2.47;1.70;;;25.60;36.10;;;;;;4151952;28;20021;-45
2021/07/19 00:42:58;;;;;;;3.85;1.90;;;25.40;36.30;;;;;;4150643;28;20048;-46
2021/07/19 00:45:00;;;;;;;;;;;25.10;36.60;;;;;;4149665;28;20029;-45
2021/07/19 00:47:04;;;;;;;3.40;1.80;;;24.90;36.80;;;;;;4148825;28;19917;-44
2021/07/19 00:49:07;;;;;;;2.17;1.70;;;24.70;37.20;;;;;;4149628;28;20031;-44
2021/07/19 00:51:11;;;;;;;3.42;2.15;;;24.60;37.50;;;;;;4148159;28;20029;-44
2021/07/19 00:53:13;;;;;;;3.25;1.63;;;24.40;38.20;;;;;;4148160;28;20028;-42
2021/07/19 00:55:17;;;;;;;1.77;1.60;;;24.30;37.90;;;;;;4148335;28;20040;-43
2021/07/19 00:57:20;;;;;;;2.50;1.88;;;24.10;38.00;;;;;;4148072;28;20114;-43
2021/07/19 00:59:27;;;;;;;3.72;1.70;;;24.00;38.20;;;;;;4149290;28;20044;-42
2021/07/19 01:01:30;;;;;;;2.30;1.50;;;23.80;38.40;;;;;;4149682;28;20136;-45
2021/07/19 01:03:33;;;;;;;2.13;1.48;;;23.70;38.60;;;;;;4149408;28;20455;-44
2021/07/19 01:05:41;;;;;;;2.47;1.80;;;23.60;38.70;;;;;;4146635;28;21285;-47
2021/07/19 01:07:46;;;;;;;3.65;1.80;;;23.40;38.00;;;;;;4148045;28;20056;-46
2021/07/19 01:09:50;;;;;;;4.40;2.00;;;23.20;36.50;;;;;;4147487;28;20032;-42
2021/07/19 01:11:53;;;;;;;2.55;1.67;;;23.00;37.30;;;;;;4148085;28;20052;-43
2021/07/19 01:13:55;;;;;;;3.83;1.80;;;22.90;38.10;;;;;;4149244;28;21026;-43
2021/07/19 01:15:57;;;;;;;2.92;1.73;;;22.80;38.40;;;;;;4146268;28;20037;-48
2021/07/19 01:18:00;;;;;;;4.25;1.60;;;22.60;38.60;;;;;;4149011;28;20035;-43
2021/07/19 01:20:03;;;;;;;;;;;22.50;39.70;;;;;;4150816;28;20550;-43
2021/07/19 01:22:23;;;;;;;2.25;1.45;;;22.50;39.20;;;;;;4146867;28;19970;-43
2021/07/19 01:24:45;;;;;;;2.78;1.70;;;22.40;39.30;;;;;;4148781;28;20630;-44
2021/07/19 01:26:59;;;;;;;2.88;1.65;;;22.30;39.40;;;;;;4148635;28;20773;-42
2021/07/19 01:29:03;;;;;;;2.70;1.58;;;22.20;39.70;;;;;;4147774;28;20037;-44
2021/07/19 01:31:24;;;;;;;4.88;1.80;;;22.10;39.70;;;;;;4148929;28;20048;-43
2021/07/19 01:33:27;;;;;;;2.72;1.70;;;22.00;39.80;;;;;;4148356;28;20525;-43
2021/07/19 01:35:30;;;;;;;;;;;21.90;40.00;;;;;;4148705;28;20636;-44
2021/07/19 01:37:33;;;;;;;2.55;1.55;;;21.80;40.10;;;;;;4148638;28;19971;-43
2021/07/19 01:39:36;;;;;;;2.97;1.35;;;21.80;40.30;;;;;;4146083;28;20033;-44
2021/07/19 01:41:40;;;;;;;2.08;1.40;;;21.70;40.30;;;;;;4144403;28;20120;-42
2021/07/19 01:43:43;;;;;;;1.60;1.40;;;21.60;40.50;;;;;;4146889;28;21132;-44
2021/07/19 01:45:46;;;;;;;2.58;1.30;;;21.60;40.70;;;;;;4143667;28;20028;-43
2021/07/19 01:47:48;;;;;;;2.03;1.52;;;21.50;40.70;;;;;;4144781;28;20032;-44
2021/07/19 01:49:51;;;;;;;1.83;1.48;;;21.40;40.90;;;;;;4146150;28;20637;-49
2021/07/19 01:51:54;;;;;;;2.78;1.40;;;21.40;40.90;;;;;;4147915;28;20021;-43
2021/07/19 01:53:58;;;;;;;2.47;1.35;;;21.30;41.00;;;;;;4145508;28;20111;-45
2021/07/19 01:56:01;;;;;;;2.08;1.48;;;;;;;;;;4146510;28;20356;-48
2021/07/19 01:58:03;;;;;;;2.45;1.42;;;;;;;;;;4146670;28;20060;-49
2021/07/19 02:00:09;;;;;;;2.20;1.42;;;;;;;;;;4147046;28;21709;-47
2021/07/19 02:02:15;;;;;;;2.30;1.52;;;;;;;;;;4146285;28;20079;-43
2021/07/19 02:04:17;;;;;;;2.10;1.48;;;;;;;;;;4146539;28;20041;-47
2021/07/19 02:06:19;;;;;;;1.70;1.33;;;;;;;;;;4146554;28;20029;-43
2021/07/19 02:08:21;;;;;;;2.40;1.63;;;;;;;;;;4146764;28;20092;-42
2021/07/19 02:10:23;;;;;;;2.08;1.40;;;;;;;;;;4149085;28;20112;-45
2021/07/19 02:12:25;;;;;;;2.70;1.70;;;;;;;;;;4149196;28;20377;-43
2021/07/19 02:14:28;;;;;;;2.13;1.50;;;;;;;;;;4146893;28;20440;-42
2021/07/19 02:16:31;;;;;;;2.13;1.50;;;;;;;;;;4148503;28;20499;-44
2021/07/19 02:18:34;;;;;;;2.13;1.40;;;;;;;;;;4149507;28;20028;-45
2021/07/19 02:20:37;;;;;;;2.60;1.33;;;;;;;;;;4150016;28;20707;-46
2021/07/19 02:22:42;;;;;;;2.50;1.40;;;;;;;;;;4145777;28;20431;-47
2021/07/19 02:24:46;;;;;;;2.08;1.30;;;;;;;;;;4150394;28;20041;-43
2021/07/19 02:26:48;;;;;;;2.45;1.40;;;;;;;;;;4150298;28;20044;-45
2021/07/19 02:28:51;;;;;;;2.10;1.27;;;;;;;;;;4148284;28;20537;-43
2021/07/19 02:30:54;;;;;;;3.30;1.55;;;;;;;;;;4151326;28;21261;-45
2021/07/19 02:32:58;;;;;;;2.78;1.30;;;;;;;;;;4148947;28;20622;-42
2021/07/19 02:35:00;;;;;;;6.82;1.85;;;;;;;;;;4149398;28;20067;-44
2021/07/19 02:37:02;;;;;;;2.50;1.20;;;;;;;;;;4150910;28;20975;-44
2021/07/19 02:39:05;;;;;;;2.70;1.35;;;;;;;;;;4152348;28;20072;-58
2021/07/19 02:41:10;;;;;;;3.42;1.15;;;;;;;;;;4149969;28;20045;-59
2021/07/19 02:43:12;;;;;;;3.30;1.30;;;;;;;;;;4149270;28;20048;-57
2021/07/19 02:45:16;;;;;;;1.13;0.90;;;;;;;;;;4150427;28;20436;-57
2021/07/19 02:47:18;;;;;;;;;;;;;;;;;;4149956;28;20080;-57
2021/07/19 02:49:20;;;;;;;3.28;1.10;;;21.20;41.10;;;;;;4150399;28;20177;-58
2021/07/19 02:51:25;;;;;;;1.90;1.10;;;20.10;43.60;;;;;;4150344;28;20194;-58
2021/07/19 02:53:31;;;;;;;2.40;1.13;;;;;;;;;;4149890;28;20040;-56
2021/07/19 02:55:34;;;;;;;1.92;1.08;;;;;;;;;;4149623;28;20153;-58
2021/07/19 02:57:37;;;;;;;1.40;0.93;;;20.00;43.90;;;;;;4150847;28;20463;-57
2021/07/19 02:59:39;;;;;;;2.75;1.40;;;;;;;;;;4149884;28;20524;-60
2021/07/19 03:01:42;;;;;;;4.50;1.13;;;;;;;;;;4150721;28;20500;-53
2021/07/19 03:03:46;;;;;;;1.37;1.20;;;;;;;;;;4150758;28;20183;-53
2021/07/19 03:05:52;;;;;;;1.38;1.17;;;19.90;43.90;;;;;;4149210;28;20161;-58
2021/07/19 03:07:57;;;;;;;1.58;0.90;;;19.70;44.20;;;;;;4150187;28;20285;-58
2021/07/19 03:10:02;;;;;;;1.98;1.00;;;19.70;44.20;;;;;;4148325;28;20966;-58
2021/07/19 03:12:07;;;;;;;2.13;1.27;;;19.70;44.30;;;;;;4147531;28;20953;-59
2021/07/19 03:14:16;;;;;;;1.30;1.00;;;19.70;44.30;;;;;;4147856;28;20033;-57
2021/07/19 03:16:18;;;;;;;3.72;1.23;;;;;;;;;;4149058;28;20036;-58
2021/07/19 03:18:21;;;;;;;1.63;1.08;;;;;;;;;;4150343;28;20040;-59
2021/07/19 03:20:24;;;;;;;1.63;1.17;;;;;;;;;;4147163;28;20549;-60
2021/07/19 03:22:27;;;;;;;3.58;1.13;;;;;;;;;;4149495;28;20044;-59
2021/07/19 03:24:29;;;;;;;4.57;1.20;;;;;;;;;;4149893;28;20060;-59
2021/07/19 03:26:32;;;;;;;1.73;1.08;;;;;;;;;;4140777;28;20144;-58
2021/07/19 03:28:35;;;;;;;1.77;0.93;;;;;;;;;;4150518;28;20973;-58
2021/07/19 03:30:37;;;;;;;1.10;1.00;;;;;;;;;;4151024;28;20048;-58
2021/07/19 03:32:40;;;;;;;5.07;1.08;;;;;;;;;;4148791;28;20132;-58
2021/07/19 03:34:43;;;;;;;1.77;1.13;;;;;;;;;;4150738;28;20045;-59
2021/07/19 03:36:44;;;;;;;;;;;;;;;;;;4147979;28;20033;-59
2021/07/19 03:38:47;;;;;;;2.92;1.00;;;;;;;;;;4148244;28;19920;-60
2021/07/19 03:40:49;;;;;;;1.05;0.95;;;;;;;;;;4148865;28;20355;-59
2021/07/19 03:42:54;;;;;;;2.03;1.23;;;;;;;;;;4148097;28;20090;-57
2021/07/19 03:44:57;;;;;;;2.92;0.90;;;;;;;;;;4149623;28;20028;-57
2021/07/19 03:47:00;;;;;;;2.05;0.77;;;;;;;;;;4152113;28;20399;-55
2021/07/19 03:49:03;;;;;;;1.83;1.02;;;;;;;;;;4152366;28;20679;-58
2021/07/19 03:51:06;;;;;;;1.73;0.95;;;;;;;;;;4145332;28;20494;-58
2021/07/19 03:53:08;;;;;;;1.77;1.20;;;;;;;;;;4149815;28;20071;-58
2021/07/19 03:55:11;;;;;;;0.75;0.75;;;;;;;;;;4145648;28;20043;-54
2021/07/19 03:57:14;;;;;;;1.58;1.10;;;;;;;;;;4148825;28;20069;-58
2021/07/19 03:59:17;;;;;;;0.90;0.90;;;;;;;;;;4148402;28;21713;-57
2021/07/19 04:01:19;;;;;;;1.30;1.08;;;;;;;;;;4149795;28;20088;-59
2021/07/19 04:03:27;;;;;;;1.58;1.02;;;;;;;;;;4145054;28;20395;-58
2021/07/19 04:05:29;;;;;;;1.73;1.00;;;;;;;;;;4150382;28;20037;-59
2021/07/19 04:07:31;;;;;;;2.30;1.05;;;;;;;;;;4147954;28;20029;-58
2021/07/19 04:09:33;;;;;;;2.30;0.82;;;;;;;;;;4148474;28;20069;-57
2021/07/19 04:11:35;;;;;;;0.82;0.70;;;;;;;;;;4150237;28;20126;-57
2021/07/19 04:13:38;;;;;;;1.50;1.08;;;;;;;;;;4147738;28;20378;-58
2021/07/19 04:15:45;;;;;;;0.60;0.60;;;;;;;;;;4149748;28;20408;-59
2021/07/19 04:17:47;;;;;;;1.77;0.82;;;;;;;;;;4148247;28;20047;-57
2021/07/19 04:19:49;;;;;;;0.70;0.70;;;;;;;;;;4148498;28;20505;-59
2021/07/19 04:21:52;;;;;;;2.55;1.00;;;;;;;;;;4149900;28;20025;-59
2021/07/19 04:23:54;;;;;;;1.45;1.00;;;;;;;;;;4145778;28;20032;-59
2021/07/19 04:25:56;;;;;;;0.60;0.57;;;;;;;;;;4148984;28;20021;-59
2021/07/19 04:27:59;;;;;;;1.63;0.82;;;;;;;;;;4145795;28;20048;-59
2021/07/19 04:30:01;;;;;;;1.80;1.00;;;;;;;;;;4148859;28;20374;-52
2021/07/19 04:32:03;;;;;;;1.20;1.10;;;;;;;;;;4146668;28;20025;-56
2021/07/19 04:34:05;;;;;;;3.72;1.27;;;;;;;;;;4148258;28;20021;-58
2021/07/19 04:36:07;;;;;;;4.78;1.13;;;;;;;;;;4146831;28;20048;-59
2021/07/19 04:38:09;;;;;;;2.72;0.93;;;;;;;;;;4147763;28;20036;-59
2021/07/19 04:40:11;;;;;;;2.17;1.05;;;;;;;;;;4149735;28;20617;-60
2021/07/19 04:42:13;;;;;;;2.13;0.98;;;;;;;;;;4149405;28;20546;-61
2021/07/19 04:44:15;;;;;;;1.35;1.00;;;;;;;;;;4150466;28;20139;-59
2021/07/19 04:46:17;;;;;;;1.55;0.80;;;;;;;;;;4145958;28;20425;-61
2021/07/19 04:48:19;;;;;;;1.15;0.90;;;;;;;;;;4148918;28;20414;-59
2021/07/19 04:50:22;;;;;;;1.38;0.90;;;;;;;;;;4149217;28;20036;-60
2021/07/19 04:52:24;;;;;;;1.73;0.82;;;;;;;;;;4150257;28;20279;-59
2021/07/19 04:54:27;;;;;;;0.75;0.75;;;;;;;;;;4148054;28;20037;-58
2021/07/19 04:56:30;;;;;;;1.90;0.85;;;;;;;;;;4149213;28;20055;-60
2021/07/19 04:58:33;;;;;;;1.35;0.90;;;;;;;;;;4150302;28;20036;-58
2021/07/19 05:00:39;;;;;;;0.98;0.70;;;;;;;;;;4144228;28;20087;-58
2021/07/19 05:02:42;;;;;;;1.42;0.70;;;;;;;;;;4148881;28;20314;-57
2021/07/19 05:04:44;;;;;;;2.17;0.82;;;;;;;;;;4149511;28;20028;-53
2021/07/19 05:06:47;;;;;;;2.95;1.00;;;;;;;;;;4148299;28;20037;-59
2021/07/19 05:08:50;;;;;;;2.08;0.90;;;;;;;;;;4148987;28;20084;-58
2021/07/19 05:10:53;;;;;;;2.65;0.77;;;;;;;;;;4147820;28;21026;-55
2021/07/19 05:12:55;;;;;;;2.20;0.90;;;;;;;;;;4148872;28;20124;-59
2021/07/19 05:14:57;;;;;;;0.70;0.70;;;;;;;;;;4147698;28;20033;-59
2021/07/19 05:17:01;;;;;;;2.60;1.00;;;;;;;;;;4149711;28;20606;-59
2021/07/19 05:19:04;;;;;;;2.70;1.10;;;;;;;;;;4147765;28;20368;-60
2021/07/19 05:21:07;;;;;;;1.00;0.88;;;;;;;;;;4147928;28;20434;-59
2021/07/19 05:23:09;;;;;;;3.58;1.23;;;;;;;;;;4147933;28;20143;-59
2021/07/19 05:25:11;;;;;;;1.20;0.98;;;;;;;;;;4147684;28;20024;-59
2021/07/19 05:27:15;;;;;;;1.30;1.20;;;;;;;;;;4149417;28;20033;-59
2021/07/19 05:29:17;;;;;;;4.35;0.95;;;;;;;;;;4148742;28;20494;-64
2021/07/19 05:31:19;;;;;;;3.50;1.27;;;;;;;;;;4150194;28;20029;-68
2021/07/19 05:33:22;;;;;;;2.13;1.10;;;;;;;;;;4148282;28;20044;-60
2021/07/19 05:35:24;;;;;;;2.88;1.40;;;;;;;;;;4146006;28;20025;-59
2021/07/19 05:37:26;;;;;;;1.95;1.30;;;;;;;;;;4146338;28;20041;-59
2021/07/19 05:39:28;;;;;;;1.25;1.05;;;;;;;;;;4146356;28;20065;-60
2021/07/19 05:41:30;;;;;;;1.58;1.20;;;;;;;;;;4148047;28;20160;-59
2021/07/19 05:43:32;;;;;;;2.33;1.05;;;;;;;;;;4144754;28;21191;-59
2021/07/19 05:45:34;;;;;;;2.95;1.40;;;;;;;;;;4147492;28;20171;-60
2021/07/19 05:47:37;;;;;;;4.63;1.33;;;;;;;;;;4147647;28;20532;-59
2021/07/19 05:49:38;;;;;;;1.52;1.00;;;;;;;;;;4145202;28;20736;-60
2021/07/19 05:51:40;;;;;;;1.80;1.10;;;;;;;;;;4147823;28;20091;-59
2021/07/19 05:53:42;;;;;;;1.10;1.00;;;;;;;;;;4147156;28;20029;-60
2021/07/19 05:55:45;;;;;;;2.08;1.17;;;;;;;;;;4149246;28;20045;-60
2021/07/19 05:57:48;;;;;;;3.03;1.25;;;;;;;;;;4146228;28;20524;-59
2021/07/19 05:59:50;;;;;;;2.40;1.30;;;;;;;;;;4144118;28;20676;-58
2021/07/19 06:01:52;;;;;;;1.35;1.10;;;;;;;;;;4146694;28;20367;-59
2021/07/19 06:03:54;;;;;;;3.22;0.90;;;;;;;;;;4148942;28;20041;-56
2021/07/19 06:05:56;;;;;;;1.40;0.90;;;;;;;;;;4146514;28;20029;-59
2021/07/19 06:07:58;;;;;;;2.58;1.15;;;;;;;;;;4147781;28;20838;-59
2021/07/19 06:10:00;;;;;;;3.08;1.30;;;;;;;;;;4148026;28;20037;-59
2021/07/19 06:12:02;;;;;;;2.22;1.30;;;;;;;;;;4141945;28;20413;-60
2021/07/19 06:14:04;;;;;;;2.72;1.27;;;;;;;;;;4143677;28;20549;-60
2021/07/19 06:16:07;;;;;;;3.15;1.50;;;;;;;;;;4142713;28;21401;-58
2021/07/19 06:18:09;;;;;;;1.25;0.88;;;;;;;;;;4141515;28;20067;-60
2021/07/19 06:20:12;;;;;;;1.42;0.95;;;;;;;;;;4142461;28;20101;-57
2021/07/19 06:22:16;;;;;;;1.85;1.38;;;;;;;;;;4142507;28;20388;-59
2021/07/19 06:24:18;;;;;;;1.55;1.17;;;;;;;;;;4143191;28;20042;-55
2021/07/19 06:26:20;;;;;;;2.08;1.10;;;;;;;;;;4143278;28;20441;-60
2021/07/19 06:28:22;;;;;;;1.17;1.00;;;;;;;;;;4142531;28;20037;-61
2021/07/19 06:30:24;;;;;;;1.48;1.10;;;;;;;;;;4142572;28;20120;-60
2021/07/19 06:32:26;;;;;;;1.77;1.02;;;;;;;;;;4143825;28;20041;-59
2021/07/19 06:34:29;;;;;;;1.55;1.10;;;;;;;;;;4141137;28;20755;-60
2021/07/19 06:36:31;;;;;;;1.85;1.25;;;;;;;;;;4143527;28;20029;-60
2021/07/19 06:38:33;;;;;;;5.43;1.30;;;;;;;;;;4143470;28;21252;-56
2021/07/19 06:40:35;;;;;;;2.15;1.02;;;;;;;;;;4140055;28;20041;-58
2021/07/19 06:42:37;;;;;;;1.20;1.10;;;;;;;;;;4143221;28;20430;-59
2021/07/19 06:44:39;;;;;;;1.40;1.00;;;;;;;;;;4143344;28;20036;-59
2021/07/19 06:46:41;;;;;;;1.63;1.10;;;;;;;;;;4143047;28;20025;-58
2021/07/19 06:48:43;;;;;;;2.58;1.05;;;;;;;;;;4142544;28;20025;-60
2021/07/19 06:50:45;;;;;;;5.10;1.45;;;;;;;;;;4142179;28;20029;-61
2021/07/19 06:52:47;;;;;;;1.63;1.30;;;;;;;;;;4141803;28;20118;-56
2021/07/19 06:54:49;;;;;;;1.50;1.30;;;;;;;;;;4143393;28;20048;-59
2021/07/19 06:56:51;;;;;;;3.15;1.30;;;;;;;;;;4140839;28;20143;-58
2021/07/19 06:58:53;;;;;;;1.90;1.20;;;;;;;;;;4142835;28;20158;-59
2021/07/19 07:00:55;;;;;;;2.88;1.48;;;;;;;;;;4142120;28;20025;-53
2021/07/19 07:02:57;;;;;;;3.38;1.20;;;;;;;;;;4138591;28;20112;-59
2021/07/19 07:04:58;;;;;;;1.85;1.13;;;;;;;;;;4141924;28;20875;-60
2021/07/19 07:07:00;;;;;;;1.63;1.13;;;;;;;;;;4154063;28;20029;-58
2021/07/19 07:09:03;;;;;;;2.10;1.20;;;;;;;;;;4141805;28;20465;-59
2021/07/19 07:11:05;;;;;;;1.35;1.05;;;;;;;;;;4145090;28;20183;-61
2021/07/19 07:13:09;;;;;;;1.65;1.40;;;;;;;;;;4145736;28;20044;-60
2021/07/19 07:15:11;;;;;;;2.25;1.35;;;;;;;;;;4140597;28;20032;-59
2021/07/19 07:17:13;;;;;;;3.10;1.40;;;;;;;;;;4144188;28;20493;-57
2021/07/19 07:19:15;;;;;;;3.80;1.55;;;;;;;;;;4144683;28;20639;-59
2021/07/19 07:21:17;;;;;;;1.42;1.30;;;;;;;;;;4142443;28;20703;-61
2021/07/19 07:23:19;;;;;;;4.28;1.30;;;;;;;;;;4143982;28;20521;-62
2021/07/19 07:25:21;;;;;;;1.58;1.30;;;;;;;;;;4142450;28;20457;-61
2021/07/19 07:27:24;;;;;;;2.53;1.40;;;;;;;;;;4145224;28;20355;-62
2021/07/19 07:29:26;;;;;;;2.20;1.70;;;;;;;;;;4146427;28;20099;-61
2021/07/19 07:31:28;;;;;;;1.95;1.42;;;;;;;;;;4148318;28;20856;-57
2021/07/19 07:33:30;;;;;;;3.08;1.83;;;;;;;;;;4148999;28;20160;-60
2021/07/19 07:35:32;;;;;;;2.70;1.83;;;;;;;;;;4148845;28;20039;-58
2021/07/19 07:37:34;;;;;;;2.08;1.70;;;;;;;;;;4150515;28;20115;-57
2021/07/19 07:39:36;;;;;;;3.22;1.80;;;;;;;;;;4149239;28;20044;-58
2021/07/19 07:41:38;;;;;;;2.85;1.83;;;;;;;;;;4148871;28;20723;-58
2021/07/19 07:43:40;;;;;;;2.95;1.92;;;;;;;;;;4150078;28;20135;-58
2021/07/19 07:45:42;;;;;;;2.88;2.25;;;;;;;;;;4149399;28;20719;-57
2021/07/19 07:47:44;;;;;;;2.92;2.63;;;;;;;;;;4148602;28;20039;-58
2021/07/19 07:49:48;;;;;;;5.75;2.97;;;;;;;;;;4148520;28;20567;-57
2021/07/19 07:51:50;;;;;;;4.05;3.05;;;;;;;;;;4151067;28;20037;-59
2021/07/19 07:53:52;;;;;;;3.83;3.42;;;;;;;;;;4150663;28;20970;-58
2021/07/19 07:55:54;;;;;;;4.10;3.70;;;;;;;;;;4149716;28;20510;-57
2021/07/19 07:57:56;;;;;;;5.10;4.55;;;;;;;;;;4148569;28;20112;-57
2021/07/19 07:59:58;;;;;;;5.63;5.03;;;;;;;;;;4149757;28;20040;-58
2021/07/19 08:02:00;;;;;;;5.85;5.32;;;;;;;;;;4147136;28;20049;-64
2021/07/19 08:04:02;;;;;;;12.63;6.13;;;;;;;;;;4148958;28;20549;-64
2021/07/19 08:06:04;;;;;;;6.07;5.47;;;;;;;;;;4148058;28;20395;-62
2021/07/19 08:08:06;;;;;;;9.77;5.80;;;;;;;;;;4147467;28;20029;-62
2021/07/19 08:10:09;;;;;;;7.30;6.60;;;;;;;;;;4146792;28;20056;-61
2021/07/19 08:12:11;;;;;;;8.13;5.97;;;;;;;;;;4148349;28;20040;-62
2021/07/19 08:14:13;;;;;;;7.60;6.70;;;;;;;;;;4149380;28;20025;-61
2021/07/19 08:16:15;;;;;;;6.90;6.20;;;;;;;;;;4147159;28;20049;-61
2021/07/19 08:18:17;;;;;;;8.43;7.13;;;;;;;;;;4149046;28;20127;-61
2021/07/19 08:20:19;;;;;;;7.20;6.22;;;;;;;;;;4145753;28;20055;-61
2021/07/19 08:22:23;;;;;;;7.45;6.57;;;;;;;;;;4146095;28;21694;-60
2021/07/19 08:24:25;;;;;;;7.00;6.30;;;;;;;;;;4148934;28;20081;-62
2021/07/19 08:26:27;;;;;;;9.82;6.97;;;;;;;;;;4147880;28;20297;-62
2021/07/19 08:28:29;;;;;;;9.23;7.47;;;;;;;;;;4148301;28;20029;-62
2021/07/19 08:30:31;;;;;;;7.78;6.65;;;;;;;;;;4148859;28;20037;-62
2021/07/19 08:32:33;;;;;;;7.63;6.93;;;;;;;;;;4149053;28;20168;-62
2021/07/19 08:34:35;;;;;;;14.38;7.32;;;;;;;;;;4148293;28;20417;-61
2021/07/19 08:36:38;;;;;;;8.20;6.43;;;;;;;;;;4147105;28;20122;-60
2021/07/19 08:38:40;;;;;;;7.07;6.13;;;;;;;;;;4149725;28;20044;-60
2021/07/19 08:40:44;;;;;;;10.63;6.55;;;;;;;;;;4143627;28;20152;-65
2021/07/19 08:42:46;;;;;;;7.65;6.60;;;;;;;;;;4144213;28;20552;-61
2021/07/19 08:44:48;;;;;;;16.60;6.35;;;;;;;;;;4143655;28;20523;-60
2021/07/19 08:46:50;;;;;;;6.75;6.15;;;;;;;;;;4143153;28;20382;-61
2021/07/19 08:48:52;;;;;;;9.15;6.20;;;;;;;;;;4146180;28;20033;-60
2021/07/19 08:50:54;;;;;;;8.65;6.63;;;;;;;;;;4146942;28;20444;-61
2021/07/19 08:52:56;;;;;;;10.10;6.50;;;;;;;;;;4144229;28;20116;-60
2021/07/19 08:54:59;;;;;;;9.38;6.15;;;;;;;;;;4146399;28;20109;-63
2021/07/19 08:57:01;;;;;;;8.15;6.70;;;;;;;;;;4140841;28;20487;-63
2021/07/19 08:59:04;;;;;;;11.63;6.72;;;;;;;;;;4146860;28;20033;-61
2021/07/19 09:01:06;;;;;;;7.32;6.43;;;;;;;;;;4145581;28;20640;-61
2021/07/19 09:03:07;;;;;;;7.50;6.65;;;;;;;;;;4143549;28;20450;-61
2021/07/19 09:05:10;;;;;;;8.30;6.60;;;;;;;;;;4144625;28;20096;-63
2021/07/19 09:07:13;;;;;;;8.23;6.32;;;;;;;;;;4145528;28;20033;-64
2021/07/19 09:09:15;;;;;;;8.68;6.70;;;;;;;;;;4145425;28;20028;-59
2021/07/19 09:11:18;;;;;;;8.82;6.45;;;;;;;;;;4145912;28;20057;-62
2021/07/19 09:13:20;;;;;;;8.20;6.35;;;;;;;;;;4144287;28;20725;-62
2021/07/19 09:15:33;;;;;;;8.57;6.57;;;;;;;;;;4144687;28;20448;-61
2021/07/19 09:17:35;;;;;;;9.18;6.60;;;;;;;;;;4145849;28;20025;-62
2021/07/19 09:19:43;;;;;;;7.72;6.55;;;;;;;;;;4143693;28;20047;-63
2021/07/19 09:21:49;;;;;;;7.30;6.43;;;19.70;44.70;;;;;;4141576;28;20460;-63
2021/07/19 09:24:02;;;;;;;7.63;6.65;;;17.70;51.50;;;;;;4144400;28;21132;-60
2021/07/19 09:26:11;;;;;;;9.68;6.70;;;17.60;51.40;;;;;;4146830;28;20510;-60
2021/07/19 09:28:13;;;;;;;7.90;6.78;;;17.60;52.30;;;;;;4143486;28;20147;-59
2021/07/19 09:30:16;;;;;;;9.65;6.20;;;17.60;51.70;;;;;;4145021;28;20114;-63
2021/07/19 09:32:19;;;;;;;9.82;6.15;;;17.60;52.00;;;;;;4142290;28;20033;-60
2021/07/19 09:34:38;;;;;;;7.05;5.82;;;17.60;51.80;;;;;;4145950;28;20979;-60
2021/07/19 09:37:13;;;;;;;7.18;6.07;;;17.60;52.00;;;;;;4144143;28;20071;-62
2021/07/19 09:39:16;;;;;;;7.00;5.82;;;17.50;52.10;;;;;;4142635;28;20576;-60
2021/07/19 09:41:24;;;;;;;7.45;6.65;;;17.50;51.80;;;;;;4145016;28;20526;-61
2021/07/19 09:43:29;;;;;;;8.23;5.57;;;17.50;51.90;;;;;;4141740;28;20067;-61
2021/07/19 09:45:33;;;;;;;7.55;5.68;;;17.50;52.00;;;;;;4143817;28;20025;-64
2021/07/19 09:47:40;;;;;;;;;;;17.40;52.00;;;;;;4145123;28;20546;-61
2021/07/19 09:49:43;;;;;;;7.43;6.03;;;17.40;51.70;;;;;;4145698;28;19972;-60
2021/07/19 09:51:45;;;;;;;7.88;5.88;;;17.40;52.10;;;;;;4144640;28;20071;-61
2021/07/19 09:53:49;;;;;;;9.15;5.80;;;17.40;52.50;;;;;;4145610;28;20057;-62
2021/07/19 09:55:51;;;;;;;7.63;5.90;;;17.40;52.50;;;;;;4144323;28;20025;-61
2021/07/19 09:57:59;;;;;;;7.00;5.90;;;17.40;52.60;;;;;;4143043;28;20538;-60
2021/07/19 10:00:01;;;;;;;9.23;5.90;;;17.40;52.70;;;;;;4145068;28;20051;-61
2021/07/19 10:02:03;;;;;;;6.53;5.55;;;17.40;52.80;;;;;;4143991;28;20207;-61
2021/07/19 10:04:23;;;;;;;7.93;5.85;;;17.30;52.60;;;;;;4142911;28;20033;-62
2021/07/19 10:06:29;;;;;;;8.02;6.05;;;17.30;52.80;;;;;;4143194;28;20059;-61
2021/07/19 10:08:32;;;;;;;6.32;5.18;;;17.30;52.80;;;;;;4145650;28;20080;-61
2021/07/19 10:10:36;;;;;;;8.63;5.60;;;17.30;53.10;;;;;;4144847;28;20585;-61
2021/07/19 10:12:39;;;;;;;6.38;5.05;;;17.30;53.00;;;;;;4145810;28;20041;-60
2021/07/19 10:14:41;;;;;;;7.43;5.03;;;17.30;52.90;;;;;;4141893;28;20413;-61
2021/07/19 10:16:43;;;;;;;5.50;4.93;;;17.30;53.20;;;;;;4143237;28;20037;-62
2021/07/19 10:18:50;;;;;;;7.43;5.45;;;17.30;53.20;;;;;;4143227;28;20108;-61
2021/07/19 10:20:52;;;;;;;6.60;5.20;;;17.30;53.90;;;;;;4144358;28;20764;-60
2021/07/19 10:22:54;;;;;;;6.30;5.05;;;17.20;53.50;;;;;;4142926;28;20399;-61
2021/07/19 10:24:57;;;;;;;6.30;5.07;;;17.20;53.40;;;;;;4144745;28;20055;-62
2021/07/19 10:26:59;;;;;;;7.75;5.28;;;17.20;53.60;;;;;;4143041;28;21353;-60
2021/07/19 10:29:03;;;;;;;5.85;5.15;;;17.20;53.80;;;;;;4146592;28;20068;-60
2021/07/19 10:31:08;;;;;;;7.07;4.82;;;17.20;53.70;;;;;;4142054;28;20044;-60
2021/07/19 10:33:10;;;;;;;6.40;4.93;;;17.20;53.80;;;;;;4144763;28;20653;-60
2021/07/19 10:35:14;;;;;;;7.90;5.20;;;17.20;53.80;;;;;;4143035;28;21371;-60
2021/07/19 10:37:51;;;;;;;5.95;4.57;;;17.20;53.70;;;;;;4145063;28;20562;-60
2021/07/19 10:39:56;;;;;;;6.07;4.63;;;17.20;53.80;;;;;;4141936;28;20052;-59
2021/07/19 10:42:06;;;;;;;6.15;4.75;;;17.20;53.70;;;;;;4144760;28;20029;-60
2021/07/19 10:44:14;;;;;;;6.18;4.57;;;17.10;53.70;;;;;;4140731;28;20686;-60
2021/07/19 10:46:16;;;;;;;10.77;4.78;;;17.10;53.40;;;;;;4145978;28;20044;-61
2021/07/19 10:48:30;;;;;;;5.78;4.50;;;17.10;53.40;;;;;;4146452;28;20105;-61
2021/07/19 10:50:40;;;;;;;7.55;4.55;;;17.10;53.40;;;;;;4147831;28;20445;-61
2021/07/19 10:52:42;;;;;;;5.90;4.90;;;17.10;53.60;;;;;;4147858;28;20619;-60
2021/07/19 10:54:49;;;;;;;5.75;4.30;;;17.10;53.60;;;;;;4144683;28;21247;-59
2021/07/19 10:56:55;;;;;;;5.57;4.45;;;17.10;53.70;;;;;;4146217;28;20036;-60
2021/07/19 10:58:57;;;;;;;5.28;4.13;;;17.10;53.60;;;;;;4145825;28;20025;-60
2021/07/19 11:00:59;;;;;;;5.68;4.30;;;17.00;53.30;;;;;;4145291;28;20033;-59
2021/07/19 11:03:04;;;;;;;5.78;4.30;;;17.00;53.60;;;;;;4145406;28;20057;-61
2021/07/19 11:05:08;;;;;;;6.25;4.28;;;17.00;53.70;;;;;;4143507;28;20060;-60
2021/07/19 11:07:12;;;;;;;6.13;4.30;;;17.00;53.90;;;;;;4145653;28;20274;-60
2021/07/19 11:09:14;;;;;;;6.22;4.10;;;17.00;53.70;;;;;;4146532;28;20387;-59
2021/07/19 11:11:28;;;;;;;4.60;3.97;;;17.00;53.70;;;;;;4146440;28;20354;-63
2021/07/19 11:13:35;;;;;;;6.50;4.40;;;17.00;53.50;;;;;;4146707;28;20033;-62
2021/07/19 11:15:39;;;;;;;4.88;3.75;;;17.00;53.70;;;;;;4148533;28;20375;-63
2021/07/19 11:17:42;;;;;;;6.00;4.10;;;16.90;53.70;;;;;;4148405;28;20405;-63
2021/07/19 11:19:44;;;;;;;5.90;3.65;;;16.90;53.60;;;;;;4148535;28;20506;-63
2021/07/19 11:21:48;;;;;;;5.80;4.35;;;16.90;53.60;;;;;;4148812;28;20388;-62
2021/07/19 11:23:50;;;;;;;5.18;4.10;;;16.90;53.30;;;;;;4148643;28;20044;-64
2021/07/19 11:25:53;;;;;;;5.22;4.10;;;16.90;53.60;;;;;;4152150;28;20289;-63
2021/07/19 11:27:56;;;;;;;7.18;4.30;;;16.90;53.50;;;;;;4144324;28;20059;-61
2021/07/19 11:30:07;;;;;;;5.60;3.80;;;16.90;53.50;;;;;;4149143;28;21026;-57
2021/07/19 11:32:28;;;;;;;6.18;3.78;;;16.90;53.90;;;;;;4149613;28;20126;-57
2021/07/19 11:34:34;;;;;;;6.35;3.90;;;16.80;54.00;;;;;;4147851;28;20394;-57
2021/07/19 11:36:49;;;;;;;6.53;3.78;;;16.80;54.20;;;;;;4150681;28;20028;-55
2021/07/19 11:38:52;;;;;;;5.00;3.72;;;16.80;54.10;;;;;;4147976;28;20094;-56
2021/07/19 11:40:54;;;;;;;;;;;16.80;54.20;;;;;;4149783;28;20033;-57